Time;durP1;ratioP1;P1;durP2;ratioP2;P2;SDS_P1;SDS_P2;PMS_P1;PMS_P2;Temp;Humidity;BMP_temperature;BMP_pressure;BME280_temperature;BME280_humidity;BME280_pressure;Samples;Min_cycle;Max_cycle;Signal;HPM_P1;HPM_P2
2023/07/17 00:00:18;;;;;;;11.10;5.77;;;;;;;19.31;57.35;100907.88;679748;29;1112;-79
2023/07/17 00:00:40;;;;;;;9.27;5.70;;;;;;;19.29;57.22;100903.47;679855;29;954;-79
2023/07/17 00:01:02;;;;;;;9.48;5.57;;;;;;;19.34;57.40;100914.91;685146;28;1380;-79
2023/07/17 00:01:22;;;;;;;9.13;5.32;;;;;;;19.27;57.51;100913.19;687951;28;1274;-79
2023/07/17 00:01:43;;;;;;;8.37;5.17;;;;;;;19.29;57.70;100908.75;682572;28;1116;-79
2023/07/17 00:02:04;;;;;;;9.37;5.37;;;;;;;19.25;57.59;100904.41;682343;28;1226;-79
2023/07/17 00:02:24;;;;;;;10.00;5.30;;;;;;;19.20;57.56;100892.94;685183;28;1074;-79
2023/07/17 00:02:45;;;;;;;10.52;5.22;;;;;;;19.21;57.48;100900.00;685264;28;1239;-79
2023/07/17 00:03:06;;;;;;;7.75;4.85;;;;;;;19.28;57.53;100909.66;685538;28;1350;-79
2023/07/17 00:03:26;;;;;;;8.20;5.00;;;;;;;19.19;57.71;100894.75;685191;28;1120;-79
2023/07/17 00:03:47;;;;;;;8.70;5.20;;;;;;;19.24;57.77;100903.50;682461;29;1113;-79
2023/07/17 00:04:08;;;;;;;9.85;5.85;;;;;;;19.26;57.89;100903.50;684977;28;1241;-79
2023/07/17 00:04:29;;;;;;;9.30;5.70;;;;;;;19.23;57.69;100895.59;685072;28;1048;-78
2023/07/17 00:04:50;;;;;;;8.75;5.00;;;;;;;19.20;57.79;100890.31;682615;29;847;-79
2023/07/17 00:05:11;;;;;;;8.80;4.87;;;;;;;19.19;57.75;100897.38;679759;29;1102;-79
2023/07/17 00:05:31;;;;;;;10.20;5.05;;;;;;;19.14;57.96;100881.53;681892;28;1148;-79
2023/07/17 00:05:52;;;;;;;9.13;5.10;;;;;;;19.25;58.07;100901.75;680157;28;1066;-79
2023/07/17 00:06:13;;;;;;;9.20;5.30;;;;;;;19.19;58.04;100889.44;679737;29;1116;-78
2023/07/17 00:06:34;;;;;;;8.03;5.27;;;;;;;19.25;58.22;100899.09;679583;29;973;-79
2023/07/17 00:06:54;;;;;;;9.73;5.40;;;;;;;19.23;58.16;100901.75;679955;28;1223;-79
2023/07/17 00:07:15;;;;;;;9.25;5.45;;;;;;;19.15;58.32;100888.59;685227;28;1119;-79
2023/07/17 00:07:37;;;;;;;9.27;5.60;;;;;;;19.27;58.32;100902.63;687736;28;1217;-79
2023/07/17 00:07:58;;;;;;;8.10;5.40;;;;;;;19.14;58.43;100885.94;685085;28;1133;-79
2023/07/17 00:08:19;;;;;;;9.07;5.55;;;;;;;19.22;58.49;100893.81;682465;28;1062;-79
2023/07/17 00:08:39;;;;;;;11.07;5.67;;;;;;;19.21;58.50;100892.06;679721;29;1058;-79
2023/07/17 00:09:00;;;;;;;11.10;5.60;;;;;;;19.24;58.58;100898.22;687730;28;1302;-79
2023/07/17 00:09:21;;;;;;;9.82;5.50;;;;;;;19.18;58.50;100885.91;686317;28;1167;-79
2023/07/17 00:09:43;;;;;;;8.90;5.43;;;;;;;19.27;58.53;100903.50;679800;28;1329;-79
2023/07/17 00:10:04;;;;;;;9.18;5.47;;;;;;;19.21;58.52;100892.94;679831;29;1124;-79
2023/07/17 00:10:25;;;;;;;9.45;5.53;;;;;;;19.23;58.64;100892.97;685006;28;1344;-79
2023/07/17 00:10:45;;;;;;;9.33;5.70;;;;;;;19.22;58.55;100893.81;682507;28;1385;-79
2023/07/17 00:11:06;;;;;;;9.55;5.40;;;;;;;19.25;58.50;100897.31;683114;28;1917;-79
2023/07/17 00:11:27;;;;;;;10.13;5.30;;;;;;;19.27;58.63;100903.50;685086;28;1319;-79
2023/07/17 00:11:47;;;;;;;10.07;5.20;;;;;;;19.22;58.60;100892.06;679809;28;1210;-79
2023/07/17 00:12:09;;;;;;;11.50;5.20;;;;;;;19.25;58.50;100892.03;682503;29;1008;-79
2023/07/17 00:12:30;;;;;;;11.45;5.00;;;;;;;19.31;58.61;100904.38;679677;29;1530;-79
2023/07/17 00:12:51;;;;;;;11.15;5.00;;;;;;;19.28;58.42;100899.97;682513;29;898;-79
2023/07/17 00:13:12;;;;;;;9.98;5.15;;;;;;;19.26;58.42;100899.09;687629;28;1324;-79
2023/07/17 00:13:32;;;;;;;9.90;5.53;;;;;;;19.18;58.35;100899.13;685227;28;1302;-79
2023/07/17 00:13:54;;;;;;;11.25;5.93;;;;;;;19.21;58.50;100894.72;685169;28;795;-80
2023/07/17 00:14:15;;;;;;;9.98;5.72;;;;;;;19.29;58.40;100911.41;683231;28;1098;-79
2023/07/17 00:14:36;;;;;;;8.38;5.50;;;;;;;19.15;58.36;100891.22;688039;28;1214;-80
2023/07/17 00:14:56;;;;;;;7.30;5.00;;;;;;;19.17;58.59;100894.75;679785;29;1104;-80
2023/07/17 00:15:17;;;;;;;8.35;5.10;;;;;;;19.17;58.64;100897.38;685134;28;982;-79
2023/07/17 00:15:38;;;;;;;11.18;5.30;;;;;;;19.22;58.44;100909.69;683291;28;1129;-79
2023/07/17 00:15:59;;;;;;;11.48;5.40;;;;;;;19.20;58.50;100904.44;682359;29;1068;-80
2023/07/17 00:16:20;;;;;;;10.80;5.33;;;;;;;19.18;58.55;100904.44;682423;28;1183;-79
2023/07/17 00:16:41;;;;;;;8.05;5.20;;;;;;;19.12;58.61;100899.16;684337;28;1240;-79
2023/07/17 00:17:01;;;;;;;7.90;5.30;;;;;;;19.08;58.55;100897.44;685109;28;1055;-79
2023/07/17 00:17:22;;;;;;;9.68;5.53;;;;;;;19.11;58.49;100910.63;682835;28;1294;-80
2023/07/17 00:17:43;;;;;;;9.80;5.60;;;;;;;19.03;58.38;100891.28;687620;28;1055;-79
2023/07/17 00:18:03;;;;;;;10.13;5.47;;;;;;;19.08;58.43;100904.47;685128;28;1153;-80
2023/07/17 00:18:54;;;;;;;9.83;5.73;;;;;;;19.12;58.69;100917.69;685060;28;966;-79
2023/07/17 00:19:15;;;;;;;9.52;5.45;;;;;;;19.10;58.53;100914.19;687778;28;2000;-79
2023/07/17 00:19:38;;;;;;;9.73;5.40;;;;;;;19.01;58.59;100904.47;682504;28;1496;-79
2023/07/17 00:20:00;;;;;;;12.25;5.60;;;;;;;18.97;58.72;100900.09;685167;28;1134;-79
2023/07/17 00:20:22;;;;;;;10.75;5.60;;;;;;;19.06;58.69;100917.75;682486;28;1093;-80
2023/07/17 00:20:42;;;;;;;10.00;5.60;;;;;;;19.07;58.62;100913.31;682564;28;858;-79
2023/07/17 00:21:04;;;;;;;8.87;5.47;;;;;;;19.00;58.49;100899.22;690420;28;1029;-80
2023/07/17 00:21:24;;;;;;;11.88;5.45;;;;;;;18.99;58.56;100908.03;687603;28;1251;-79
2023/07/17 00:21:45;;;;;;;11.90;5.50;;;;;;;18.97;58.62;100909.78;680082;28;1378;-80
2023/07/17 00:22:07;;;;;;;10.97;5.73;;;;;;;19.00;58.64;100909.78;686938;28;1245;-79
2023/07/17 00:22:27;;;;;;;8.10;5.65;;;;;;;19.02;58.54;100916.84;687797;28;1103;-80
2023/07/17 00:22:48;;;;;;;9.65;5.60;;;;;;;18.99;58.54;100911.53;682386;28;1211;-79
2023/07/17 00:23:09;;;;;;;10.18;5.75;;;;;;;18.99;58.52;100914.19;684902;28;1272;-79
2023/07/17 00:23:31;;;;;;;10.40;5.90;;;;;;;19.02;58.75;100915.94;687584;28;1066;-79
2023/07/17 00:23:52;;;;;;;9.05;6.15;;;;;;;19.00;58.72;100909.78;685253;28;814;-79
2023/07/17 00:24:12;;;;;;;7.65;5.60;;;;;;;18.96;58.67;100905.38;687725;28;1182;-80
2023/07/17 00:24:33;;;;;;;8.68;5.40;;;;;;;18.94;58.71;100909.81;682499;28;1186;-79
2023/07/17 00:24:54;;;;;;;9.23;5.28;;;;;;;18.86;58.83;100905.44;685188;28;1360;-79
2023/07/17 00:25:15;;;;;;;10.20;6.00;;;;;;;18.96;58.89;100914.22;685005;28;1297;-79
2023/07/17 00:25:36;;;;;;;9.80;6.20;;;;;;;18.96;59.18;100916.88;679626;28;1195;-80
2023/07/17 00:25:56;;;;;;;10.02;6.22;;;;;;;18.91;58.97;100906.31;679815;29;1019;-78
2023/07/17 00:26:17;;;;;;;10.67;5.97;;;;;;;18.96;59.06;100921.25;682423;28;1107;-80
2023/07/17 00:26:38;;;;;;;10.57;5.83;;;;;;;18.86;59.02;100902.78;684876;28;1194;-79
2023/07/17 00:26:59;;;;;;;10.80;6.10;;;;;;;18.92;59.06;100909.81;685006;28;1201;-79
2023/07/17 00:27:20;;;;;;;10.20;6.32;;;;;;;18.89;59.14;100905.41;682333;29;1101;-79
2023/07/17 00:27:41;;;;;;;11.65;6.57;;;;;;;18.90;59.30;100908.94;682357;28;1273;-79
2023/07/17 00:28:02;;;;;;;10.17;6.17;;;;;;;18.94;59.35;100923.94;682359;28;1231;-79
2023/07/17 00:28:22;;;;;;;10.50;5.78;;;;;;;18.88;59.21;100908.94;685033;28;1286;-80
2023/07/17 00:28:46;;;;;;;9.77;5.78;;;;;;;18.83;59.44;100908.09;687720;28;1180;-79
2023/07/17 00:29:23;;;;;;;10.93;6.00;;;;;;;18.83;59.58;100905.47;687383;28;1028;-79
2023/07/17 00:29:44;;;;;;;10.90;6.30;;;;;;;18.82;59.60;100905.47;682503;29;817;-80
2023/07/17 00:30:05;;;;;;;10.50;6.30;;;;;;;18.82;59.67;100911.66;682494;28;1103;-79
2023/07/17 00:30:26;;;;;;;10.05;6.20;;;;;;;18.78;59.63;100904.59;682138;29;1279;-79
2023/07/17 00:30:47;;;;;;;9.35;6.03;;;;;;;18.76;59.68;100896.66;685016;28;1280;-79
2023/07/17 00:31:08;;;;;;;9.65;6.00;;;;;;;18.83;59.69;100913.41;687637;28;1965;-80
2023/07/17 00:31:29;;;;;;;9.77;6.00;;;;;;;18.79;59.86;100906.34;682261;28;1347;-79
2023/07/17 00:31:50;;;;;;;10.93;6.20;;;;;;;18.80;59.91;100915.19;682480;29;807;-79
2023/07/17 00:32:11;;;;;;;11.00;6.15;;;;;;;18.81;59.84;100916.94;682415;29;1419;-80
2023/07/17 00:32:32;;;;;;;10.25;5.97;;;;;;;18.77;59.91;100908.13;684829;28;1579;-80
2023/07/17 00:32:53;;;;;;;10.18;5.70;;;;;;;18.76;59.81;100906.38;685183;28;738;-80
2023/07/17 00:33:14;;;;;;;12.05;6.00;;;;;;;18.76;59.85;100911.66;682182;28;1392;-79
2023/07/17 00:33:35;;;;;;;12.02;6.00;;;;;;;18.75;59.80;100912.56;682315;29;1190;-79
2023/07/17 00:33:55;;;;;;;11.57;5.80;;;;;;;18.83;60.09;100929.25;685041;28;1097;-80
2023/07/17 00:34:21;;;;;;;11.10;6.03;;;;;;;18.73;60.02;100915.19;687789;28;1083;-80
2023/07/17 00:34:42;;;;;;;11.63;6.38;;;;;;;18.67;60.07;100906.41;687685;28;1310;-79
2023/07/17 00:35:03;;;;;;;11.30;6.60;;;;;;;18.67;60.06;100903.78;690836;28;1127;-79
2023/07/17 00:35:24;;;;;;;11.07;6.25;;;;;;;18.74;59.94;100918.69;690303;28;1102;-79
2023/07/17 00:35:46;;;;;;;11.70;5.93;;;;;;;18.74;60.07;100927.53;684680;28;954;-81
2023/07/17 00:36:06;;;;;;;11.70;5.95;;;;;;;18.71;60.44;100921.38;687896;28;1167;-80
2023/07/17 00:36:27;;;;;;;11.93;6.07;;;;;;;18.66;60.21;100917.84;685064;28;1065;-78
2023/07/17 00:36:49;;;;;;;12.38;6.40;;;;;;;18.67;60.30;100917.00;685092;28;992;-79
2023/07/17 00:37:09;;;;;;;12.80;6.30;;;;;;;18.63;60.42;100927.56;687733;28;1093;-78
2023/07/17 00:37:30;;;;;;;13.13;6.23;;;;;;;18.64;60.44;100929.31;680482;28;1095;-79
2023/07/17 00:37:51;;;;;;;12.77;6.30;;;;;;;18.66;60.54;100937.25;685236;28;871;-79
2023/07/17 00:38:11;;;;;;;11.95;6.20;;;;;;;18.68;60.74;100945.19;687628;28;1247;-78
2023/07/17 00:38:34;;;;;;;11.05;6.30;;;;;;;18.60;60.68;100932.84;682166;28;955;-79
2023/07/17 00:38:55;;;;;;;11.80;6.57;;;;;;;18.63;60.47;100942.53;679807;29;1052;-78
2023/07/17 00:39:16;;;;;;;12.27;6.65;;;;;;;18.54;60.57;100921.41;682269;28;1164;-79
2023/07/17 00:39:36;;;;;;;11.52;6.40;;;;;;;18.58;60.61;100934.63;687381;28;1327;-80
2023/07/17 00:39:57;;;;;;;10.97;6.27;;;;;;;18.63;60.68;100938.13;679817;29;1021;-79
2023/07/17 00:40:17;;;;;;;10.82;6.28;;;;;;;18.64;60.79;100950.44;682356;28;1187;-79
2023/07/17 00:40:41;;;;;;;10.20;6.10;;;;;;;18.60;60.87;100938.16;685031;28;871;-79
2023/07/17 00:41:01;;;;;;;9.18;6.10;;;;;;;18.66;60.92;100952.22;685032;28;1025;-79
2023/07/17 00:41:22;;;;;;;10.20;6.30;;;;;;;18.64;60.84;100945.16;679620;28;1204;-79
2023/07/17 00:41:42;;;;;;;9.50;6.43;;;;;;;18.54;60.87;100922.28;682454;29;1010;-79
2023/07/17 00:42:04;;;;;;;8.90;6.20;;;;;;;18.61;60.83;100934.63;677141;29;1010;-79
2023/07/17 00:42:26;;;;;;;8.02;6.20;;;;;;;18.52;60.87;100928.47;684924;28;1251;-78
2023/07/17 00:42:47;;;;;;;8.90;6.05;;;;;;;18.54;60.91;100938.16;685584;28;1290;-79
2023/07/17 00:43:10;;;;;;;9.57;6.00;;;;;;;18.52;60.99;100937.28;685002;28;1010;-79
2023/07/17 00:43:49;;;;;;;10.13;6.10;;;;;;;18.63;61.00;100963.69;677088;29;1141;-79
2023/07/17 00:44:10;;;;;;;9.45;6.22;;;;;;;18.59;60.93;100952.25;682220;28;1318;-78
2023/07/17 00:44:31;;;;;;;10.27;6.43;;;;;;;18.55;60.94;100953.13;681818;29;1137;-78
2023/07/17 00:44:53;;;;;;;9.73;6.45;;;;;;;18.56;61.03;100952.22;685304;28;1262;-79
2023/07/17 00:45:14;;;;;;;9.82;6.35;;;;;;;18.54;61.11;100951.38;684615;28;1303;-79
2023/07/17 00:45:35;;;;;;;9.30;5.95;;;;;;;18.57;61.18;100951.34;681813;29;1045;-78
2023/07/17 00:45:57;;;;;;;10.75;6.28;;;;;;;18.57;61.11;100963.69;682372;28;1263;-78
2023/07/17 00:46:18;;;;;;;12.40;6.43;;;;;;;18.49;61.16;100947.84;685140;28;1019;-79
2023/07/17 00:46:38;;;;;;;11.80;6.68;;;;;;;18.45;61.34;100943.47;685067;28;877;-79
2023/07/17 00:46:59;;;;;;;11.05;6.70;;;;;;;18.47;61.22;100952.25;685067;28;966;-78
2023/07/17 00:47:20;;;;;;;9.68;6.72;;;;;;;18.50;61.37;100955.78;682303;28;1483;-79
2023/07/17 00:47:42;;;;;;;9.70;6.67;;;;;;;18.52;61.28;100954.88;687940;28;1100;-79
2023/07/17 00:48:03;;;;;;;9.07;6.50;;;;;;;18.55;61.26;100960.19;687650;28;1083;-79
2023/07/17 00:48:24;;;;;;;10.40;6.30;;;;;;;18.53;61.16;100962.81;687655;28;1076;-79
2023/07/17 00:49:22;;;;;;;10.27;6.38;;;;;;;18.60;61.23;100967.22;687795;28;1225;-79
2023/07/17 00:49:51;;;;;;;10.48;6.50;;;;;;;18.50;61.22;100952.25;685038;28;1296;-79
2023/07/17 00:50:11;;;;;;;10.70;6.50;;;;;;;18.52;61.45;100955.78;687576;28;1105;-78
2023/07/17 00:50:33;;;;;;;10.38;6.60;;;;;;;18.60;61.28;100968.97;679622;29;1050;-79
2023/07/17 00:50:54;;;;;;;10.65;6.65;;;;;;;18.54;61.25;100961.94;677099;29;1911;-78
2023/07/17 00:51:15;;;;;;;9.50;6.40;;;;;;;18.52;61.26;100955.78;679814;29;1085;-79
2023/07/17 00:51:38;;;;;;;8.63;6.07;;;;;;;18.57;61.39;100964.56;684806;28;1088;-79
2023/07/17 00:52:00;;;;;;;8.80;6.03;;;;;;;18.48;61.28;100954.00;685132;28;1041;-79
2023/07/17 00:52:21;;;;;;;9.35;6.38;;;;;;;18.58;61.25;100966.34;684736;28;1026;-79
2023/07/17 00:52:51;;;;;;;9.40;6.30;;;;;;;18.61;61.35;100974.25;685011;28;1192;-78
2023/07/17 00:53:14;;;;;;;9.95;6.30;;;;;;;18.52;61.29;100954.88;679702;28;1302;-79
2023/07/17 00:53:34;;;;;;;10.32;6.50;;;;;;;18.58;61.34;100965.44;684977;28;1076;-78
2023/07/17 00:53:55;;;;;;;9.70;6.30;;;;;;;18.60;61.34;100977.78;679840;28;1044;-79
2023/07/17 00:54:18;;;;;;;9.30;6.25;;;;;;;18.62;61.33;100978.66;682445;28;1133;-79
2023/07/17 00:54:41;;;;;;;9.27;6.10;;;;;;;18.57;61.24;100969.84;685057;28;973;-79
2023/07/17 00:55:04;;;;;;;9.60;5.90;;;;;;;18.63;61.33;100976.91;684959;28;1266;-78
2023/07/17 00:55:25;;;;;;;10.27;6.03;;;;;;;18.56;61.33;100960.16;682231;28;1224;-78
2023/07/17 00:55:46;;;;;;;11.27;6.55;;;;;;;18.66;61.32;100970.72;684586;28;1087;-79
2023/07/17 00:56:07;;;;;;;13.98;6.80;;;;;;;18.66;60.96;100974.25;690420;28;1074;-79
2023/07/17 00:56:28;;;;;;;15.70;6.80;;;;;;;18.62;61.29;100968.09;690365;28;1179;-78
2023/07/17 00:56:50;;;;;;;14.38;6.35;;;;;;;18.62;61.07;100968.09;685479;28;1118;-78
2023/07/17 00:57:15;;;;;;;14.10;6.30;;;;;;;18.61;60.92;100963.69;685091;28;1326;-78
2023/07/17 00:57:36;;;;;;;10.45;6.00;;;;;;;18.63;60.88;100961.91;682329;28;1092;-78
2023/07/17 00:57:57;;;;;;;9.55;5.93;;;;;;;18.63;60.86;100959.25;682351;29;1368;-78
2023/07/17 00:58:18;;;;;;;9.50;6.07;;;;;;;18.68;60.60;100963.69;682281;28;1155;-78
2023/07/17 00:58:39;;;;;;;10.75;6.30;;;;;;;18.70;60.69;100969.84;685108;28;1329;-78
2023/07/17 00:59:01;;;;;;;11.40;6.33;;;;;;;18.77;60.77;100974.22;682190;29;1533;-79
2023/07/17 00:59:22;;;;;;;10.43;6.03;;;;;;;18.70;60.53;100953.97;684974;28;1091;-79
2023/07/17 00:59:43;;;;;;;10.02;6.13;;;;;;;18.82;60.41;100969.81;685118;28;938;-79
2023/07/17 01:00:05;;;;;;;10.18;6.05;;;;;;;18.83;60.24;100970.66;687265;28;1308;-78
2023/07/17 01:00:27;;;;;;;10.48;6.00;;;;;;;18.80;60.40;100960.97;687565;28;1324;-79
2023/07/17 01:00:48;;;;;;;10.07;6.00;;;;;;;18.82;60.49;100959.22;687565;28;1639;-78
2023/07/17 01:01:09;;;;;;;10.35;6.40;;;;;;;18.87;60.02;100973.28;687499;28;1379;-79
2023/07/17 01:01:29;;;;;;;10.60;6.00;;;;;;;18.90;59.97;100960.09;687686;28;1086;-78
2023/07/17 01:01:50;;;;;;;9.80;5.90;;;;;;;18.91;59.88;100958.28;683031;28;1125;-79
2023/07/17 01:02:12;;;;;;;8.60;5.60;;;;;;;18.96;59.69;100960.91;682414;29;1191;-78
2023/07/17 01:02:33;;;;;;;7.90;5.80;;;;;;;18.98;59.76;100969.72;684835;28;1399;-78
2023/07/17 01:02:56;;;;;;;8.70;5.82;;;;;;;18.95;59.70;100959.16;682803;28;1204;-78
2023/07/17 01:03:17;;;;;;;9.85;6.10;;;;;;;19.07;59.50;100974.13;677174;29;1003;-79
2023/07/17 01:03:38;;;;;;;10.85;6.25;;;;;;;19.01;59.49;100969.72;679682;29;965;-79
2023/07/17 01:04:03;;;;;;;11.75;6.50;;;;;;;19.02;59.55;100960.91;682340;28;1290;-79
2023/07/17 01:04:24;;;;;;;12.00;6.55;;;;;;;19.04;59.62;100975.03;686702;28;1181;-79
2023/07/17 01:04:46;;;;;;;11.13;6.15;;;;;;;19.07;59.59;100985.63;687575;28;1178;-79
2023/07/17 01:05:08;;;;;;;10.73;5.93;;;;;;;19.14;59.18;100991.75;687693;28;1084;-78
2023/07/17 01:05:29;;;;;;;11.85;5.80;;;;;;;19.11;59.14;100984.69;684726;28;1196;-77
2023/07/17 01:05:50;;;;;;;11.88;6.03;;;;;;;19.11;58.98;100987.34;687143;28;772;-78
2023/07/17 01:06:10;;;;;;;12.13;6.63;;;;;;;19.14;58.87;100989.09;685026;28;1091;-78
2023/07/17 01:06:38;;;;;;;13.02;6.70;;;;;;;19.18;58.91;100989.06;687436;28;1005;-78
2023/07/17 01:07:00;;;;;;;14.32;6.50;;;;;;;19.10;58.72;100964.44;684902;28;1385;-77
2023/07/17 01:07:23;;;;;;;13.45;6.40;;;;;;;19.26;58.58;100990.81;687677;28;1147;-78
2023/07/17 01:07:44;;;;;;;13.10;6.10;;;;;;;19.21;58.82;100993.47;679647;28;1042;-79
2023/07/17 01:08:04;;;;;;;14.30;6.03;;;;;;;19.13;58.45;100974.13;687850;28;1452;-77
2023/07/17 01:08:26;;;;;;;15.02;5.82;;;;;;;19.26;58.12;100991.72;687646;28;937;-78
2023/07/17 01:08:48;;;;;;;13.73;5.65;;;;;;;19.34;57.98;100996.03;687570;28;926;-78
2023/07/17 01:09:12;;;;;;;11.90;5.68;;;;;;;19.29;57.78;100980.19;684863;28;1128;-76
2023/07/17 01:09:33;;;;;;;10.07;5.45;;;;;;;19.34;57.33;100983.72;679522;28;1618;-77
2023/07/17 01:09:53;;;;;;;8.90;5.38;;;;;;;19.42;57.33;100992.50;685072;28;896;-79
2023/07/17 01:10:14;;;;;;;9.27;5.27;;;;;;;19.41;56.92;100972.22;687768;28;1033;-77
2023/07/17 01:10:37;;;;;;;10.02;5.35;;;;;;;19.42;56.63;100979.25;682470;28;1213;-78
2023/07/17 01:10:58;;;;;;;10.70;5.20;;;;;;;19.48;56.85;100978.34;682308;28;1977;-79
2023/07/17 01:11:19;;;;;;;10.88;5.40;;;;;;;19.49;56.55;100981.88;690450;28;1159;-78
2023/07/17 01:11:40;;;;;;;12.38;5.90;;;;;;;19.45;56.41;100976.63;684954;28;1368;-77
2023/07/17 01:12:00;;;;;;;15.13;6.00;;;;;;;19.51;56.36;100980.09;685048;28;1141;-78
2023/07/17 01:12:21;;;;;;;16.92;6.07;;;;;;;19.51;56.39;100983.63;681843;29;1517;-79
2023/07/17 01:12:42;;;;;;;16.13;5.90;;;;;;;19.44;56.30;100974.81;686686;28;1342;-78
2023/07/17 01:13:03;;;;;;;12.25;5.88;;;;;;;19.58;56.33;100987.09;689267;28;1340;-78
2023/07/17 01:13:24;;;;;;;10.07;5.63;;;;;;;19.59;56.22;100988.84;687732;28;1107;-79
2023/07/17 01:13:47;;;;;;;11.35;6.10;;;;;;;19.54;56.03;100980.09;685091;28;1344;-78
2023/07/17 01:14:18;;;;;;;11.57;6.18;;;;;;;19.56;55.91;100973.00;687675;28;992;-78
2023/07/17 01:14:39;;;;;;;10.10;5.68;;;;;;;19.60;55.80;100980.03;686300;28;971;-78
2023/07/17 01:15:01;;;;;;;9.50;5.32;;;;;;;19.69;55.84;100994.97;685046;28;1128;-79
2023/07/17 01:15:22;;;;;;;8.32;5.18;;;;;;;19.63;55.81;100995.91;684863;28;1036;-78
2023/07/17 01:15:43;;;;;;;9.18;5.28;;;;;;;19.59;55.97;100975.63;689752;28;1162;-79
2023/07/17 01:16:03;;;;;;;8.93;5.20;;;;;;;19.63;55.61;100984.44;690285;28;1296;-78
2023/07/17 01:16:24;;;;;;;11.95;5.50;;;;;;;19.67;55.76;100991.47;687601;28;1346;-80
2023/07/17 01:16:47;;;;;;;11.57;5.60;;;;;;;19.63;55.60;100984.44;687346;28;1581;-78
2023/07/17 01:17:08;;;;;;;12.85;5.80;;;;;;;19.61;55.77;100980.91;682291;28;1060;-79
2023/07/17 01:17:28;;;;;;;10.77;5.50;;;;;;;19.64;55.61;100983.53;682367;29;1049;-79
2023/07/17 01:17:50;;;;;;;10.03;5.30;;;;;;;19.66;55.78;100985.28;679785;29;1152;-79
2023/07/17 01:18:10;;;;;;;9.05;5.30;;;;;;;19.65;55.84;101003.81;682233;28;1291;-79
2023/07/17 01:18:31;;;;;;;8.50;5.27;;;;;;;19.59;56.04;100996.81;687380;28;1374;-78
2023/07/17 01:18:52;;;;;;;9.02;5.22;;;;;;;19.64;55.78;101000.31;684976;28;954;-79
2023/07/17 01:19:15;;;;;;;9.13;5.30;;;;;;;19.58;55.85;100995.03;682355;28;1017;-77
2023/07/17 01:19:36;;;;;;;10.32;5.50;;;;;;;19.58;55.80;100988.00;687617;28;1131;-78
2023/07/17 01:19:58;;;;;;;10.23;5.32;;;;;;;19.64;55.59;100997.66;690367;28;1109;-77
2023/07/17 01:20:18;;;;;;;10.52;5.18;;;;;;;19.69;55.56;101006.47;684892;28;1043;-78
2023/07/17 01:20:41;;;;;;;9.68;4.90;;;;;;;19.69;55.46;101008.22;682433;28;1096;-78
2023/07/17 01:21:05;;;;;;;10.00;5.00;;;;;;;19.67;55.31;101010.88;682359;28;981;-78
2023/07/17 01:21:30;;;;;;;9.82;4.90;;;;;;;19.64;55.40;100997.66;685088;28;1083;-79
2023/07/17 01:22:08;;;;;;;9.48;4.90;;;;;;;19.63;55.34;100995.00;682530;29;950;-78
2023/07/17 01:22:34;;;;;;;9.30;4.47;;;;;;;19.64;55.22;100997.66;684468;28;1001;-79
2023/07/17 01:23:05;;;;;;;11.52;4.80;;;;;;;19.58;55.47;101003.88;684989;28;1225;-78
2023/07/17 01:23:26;;;;;;;9.73;5.00;;;;;;;19.51;55.45;100990.69;684861;28;1213;-78
2023/07/17 01:23:47;;;;;;;9.27;4.80;;;;;;;19.51;55.50;101004.81;687677;28;1188;-78
2023/07/17 01:24:07;;;;;;;8.40;4.60;;;;;;;19.53;55.36;101007.41;682346;29;1188;-78
2023/07/17 01:24:29;;;;;;;10.13;4.70;;;;;;;19.50;55.46;100996.88;682125;29;1377;-78
2023/07/17 01:24:50;;;;;;;10.43;4.85;;;;;;;19.49;55.52;101000.41;679824;29;788;-78
2023/07/17 01:25:12;;;;;;;10.60;4.95;;;;;;;19.40;55.78;101012.78;687587;28;1497;-78
2023/07/17 01:25:33;;;;;;;8.05;4.80;;;;;;;19.40;55.86;101004.84;681649;29;1363;-78
2023/07/17 01:25:56;;;;;;;7.88;4.72;;;;;;;19.44;55.82;101001.28;682287;28;1295;-78
2023/07/17 01:26:18;;;;;;;8.30;4.67;;;;;;;19.51;55.74;101011.84;679682;29;1127;-77
2023/07/17 01:26:39;;;;;;;7.63;4.53;;;;;;;19.45;55.60;100988.94;679522;29;1209;-78
2023/07/17 01:27:00;;;;;;;6.32;4.55;;;;;;;19.47;55.63;100991.59;682183;29;1215;-78
2023/07/17 01:27:20;;;;;;;6.50;4.82;;;;;;;19.56;55.77;101010.06;682230;28;1128;-78
2023/07/17 01:27:41;;;;;;;9.07;5.23;;;;;;;19.51;55.58;101006.56;685002;28;1141;-77
2023/07/17 01:28:02;;;;;;;9.23;5.00;;;;;;;19.50;55.67;101007.44;682277;29;1223;-78
2023/07/17 01:28:23;;;;;;;8.65;4.57;;;;;;;19.43;55.68;100994.25;683120;28;1065;-77
2023/07/17 01:28:44;;;;;;;7.00;4.40;;;;;;;19.43;55.58;100998.69;685026;28;1137;-79
2023/07/17 01:29:05;;;;;;;7.57;4.40;;;;;;;19.51;55.53;101011.84;687645;28;1078;-78
2023/07/17 01:29:26;;;;;;;8.75;4.55;;;;;;;19.42;55.84;101013.66;682315;28;1167;-78
2023/07/17 01:29:47;;;;;;;8.93;4.30;;;;;;;19.40;55.89;100998.66;682015;29;1537;-78
2023/07/17 01:30:09;;;;;;;8.32;4.25;;;;;;;19.49;55.69;101011.00;684551;28;1430;-79
2023/07/17 01:30:30;;;;;;;8.40;4.20;;;;;;;19.43;55.79;101007.47;690220;28;1055;-78
2023/07/17 01:30:51;;;;;;;7.78;4.35;;;;;;;19.41;55.81;100996.03;690910;28;1229;-78
2023/07/17 01:31:12;;;;;;;7.68;4.40;;;;;;;19.43;55.74;100994.25;687614;28;1914;-77
2023/07/17 01:31:34;;;;;;;8.57;4.57;;;;;;;19.45;55.75;100999.53;682173;29;1193;-79
2023/07/17 01:31:55;;;;;;;7.80;4.40;;;;;;;19.38;55.54;100990.75;682306;28;1125;-78
2023/07/17 01:32:19;;;;;;;6.55;4.10;;;;;;;19.48;55.54;101006.59;679566;28;1339;-77
2023/07/17 01:32:40;;;;;;;6.65;3.80;;;;;;;19.38;55.56;101001.34;679690;29;980;-78
2023/07/17 01:33:01;;;;;;;8.80;3.90;;;;;;;19.37;55.60;100999.56;682241;28;1215;-78
2023/07/17 01:33:22;;;;;;;8.98;4.10;;;;;;;19.41;55.44;101009.25;682364;29;1026;-78
2023/07/17 01:33:55;;;;;;;7.60;4.20;;;;;;;19.47;55.24;101015.41;687641;28;1144;-78
2023/07/17 01:34:15;;;;;;;6.72;4.20;;;;;;;19.37;55.19;100994.28;684936;28;1104;-78
2023/07/17 01:34:37;;;;;;;8.30;4.53;;;;;;;19.37;55.11;100988.97;690205;28;1017;-79
2023/07/17 01:34:57;;;;;;;9.15;4.50;;;;;;;19.39;55.07;100992.50;684988;28;1099;-78
2023/07/17 01:35:18;;;;;;;9.00;4.40;;;;;;;19.45;54.98;101003.06;682276;29;1088;-78
2023/07/17 01:35:39;;;;;;;8.25;4.10;;;;;;;19.37;55.20;100994.28;679067;29;893;-78
2023/07/17 01:36:01;;;;;;;7.80;4.10;;;;;;;19.49;55.05;101008.34;679515;29;1130;-77
2023/07/17 01:36:22;;;;;;;7.75;4.30;;;;;;;19.45;55.03;100997.78;684880;28;1108;-77
2023/07/17 01:36:43;;;;;;;8.13;4.50;;;;;;;19.44;54.79;100988.06;684986;28;1109;-77
2023/07/17 01:37:04;;;;;;;8.02;4.38;;;;;;;19.42;54.82;100987.19;679434;29;1218;-77
2023/07/17 01:37:25;;;;;;;8.73;4.43;;;;;;;19.54;54.86;101004.78;689617;28;1469;-78
2023/07/17 01:37:45;;;;;;;7.80;3.90;;;;;;;19.44;54.91;100984.56;685097;28;1194;-77
2023/07/17 01:38:07;;;;;;;7.75;4.03;;;;;;;19.44;55.02;100996.00;677712;28;1086;-78
2023/07/17 01:38:28;;;;;;;7.18;3.88;;;;;;;19.43;54.83;100988.09;677047;29;955;-78
2023/07/17 01:38:49;;;;;;;6.03;4.00;;;;;;;19.49;54.92;100989.81;679635;29;1120;-78
2023/07/17 01:39:09;;;;;;;7.60;4.10;;;;;;;19.45;54.78;100991.59;682269;29;1038;-78
2023/07/17 01:39:30;;;;;;;8.20;4.20;;;;;;;19.38;55.06;100985.47;679576;28;1387;-78
2023/07/17 01:39:51;;;;;;;7.68;3.90;;;;;;;19.44;54.87;100996.00;677173;29;800;-78
2023/07/17 01:40:14;;;;;;;7.40;4.10;;;;;;;19.53;54.74;100999.47;679616;29;1213;-78
2023/07/17 01:40:35;;;;;;;8.23;4.45;;;;;;;19.43;54.70;100988.94;687344;28;1266;-78
2023/07/17 01:40:56;;;;;;;9.07;4.77;;;;;;;19.36;54.86;100978.41;679685;28;1443;-78
2023/07/17 01:41:16;;;;;;;8.75;4.45;;;;;;;19.47;54.83;100991.59;679893;29;1333;-79
2023/07/17 01:41:37;;;;;;;7.38;3.88;;;;;;;19.40;54.87;100980.16;680093;29;983;-78
2023/07/17 01:41:57;;;;;;;6.00;3.70;;;;;;;19.39;54.83;100976.63;685517;28;1162;-78
2023/07/17 01:42:19;;;;;;;6.00;3.83;;;;;;;19.41;54.78;100988.09;687907;28;1020;-78
2023/07/17 01:42:39;;;;;;;6.80;4.20;;;;;;;19.47;54.82;100994.25;682805;28;998;-78
2023/07/17 01:43:00;;;;;;;6.72;4.10;;;;;;;19.40;54.80;100978.41;688117;28;1065;-77
2023/07/17 01:43:21;;;;;;;8.27;4.20;;;;;;;19.40;54.75;100978.41;684879;28;1001;-78
2023/07/17 01:43:58;;;;;;;9.20;4.30;;;;;;;19.51;54.70;100995.97;682738;29;1104;-78